sensor_id;sensor_type;location;lat;lon;timestamp;pressure;altitude;pressure_sealevel;temperature;humidity
26087;BME280;13851;43.434;28.338;2023-04-25T00:01:17;99292.63;;;11.40;100.00
26087;BME280;13851;43.434;28.338;2023-04-25T00:03:44;99267.22;;;10.90;100.00
26087;BME280;13851;43.434;28.338;2023-04-25T00:06:09;99240.50;;;10.99;100.00
26087;BME280;13851;43.434;28.338;2023-04-25T00:08:35;99340.72;;;11.36;100.00
26087;BME280;13851;43.434;28.338;2023-04-25T00:11:01;99302.34;;;11.36;100.00
26087;BME280;13851;43.434;28.338;2023-04-25T00:13:26;99003.75;;;9.61;100.00
26087;BME280;13851;43.434;28.338;2023-04-25T00:15:52;99276.50;;;11.24;100.00
26087;BME280;13851;43.434;28.338;2023-04-25T00:18:25;99248.56;;;11.07;100.00
26087;BME280;13851;43.434;28.338;2023-04-25T00:20:53;99289.03;;;11.33;100.00
26087;BME280;13851;43.434;28.338;2023-04-25T00:23:19;99275.22;;;11.20;100.00
26087;BME280;13851;43.434;28.338;2023-04-25T00:25:45;99260.16;;;11.09;100.00
26087;BME280;13851;43.434;28.338;2023-04-25T00:28:12;99222.81;;;11.02;100.00
26087;BME280;13851;43.434;28.338;2023-04-25T00:30:38;99336.69;;;11.32;100.00
26087;BME280;13851;43.434;28.338;2023-04-25T00:33:04;99314.25;;;11.22;100.00
26087;BME280;13851;43.434;28.338;2023-04-25T00:35:30;99215.94;;;10.84;100.00
26087;BME280;13851;43.434;28.338;2023-04-25T00:37:56;99343.38;;;11.23;100.00
26087;BME280;13851;43.434;28.338;2023-04-25T00:40:21;98884.09;;;8.86;100.00
26087;BME280;13851;43.434;28.338;2023-04-25T00:42:47;99210.06;;;10.87;100.00
26087;BME280;13851;43.434;28.338;2023-04-25T00:45:14;99248.56;;;11.07;100.00
26087;BME280;13851;43.434;28.338;2023-04-25T00:47:44;99224.25;;;10.98;100.00
26087;BME280;13851;43.434;28.338;2023-04-25T00:50:11;99197.56;;;10.78;100.00
26087;BME280;13851;43.434;28.338;2023-04-25T00:52:43;99271.88;;;11.25;100.00
26087;BME280;13851;43.434;28.338;2023-04-25T00:55:10;99208.75;;;10.83;100.00
26087;BME280;13851;43.434;28.338;2023-04-25T00:57:38;99309.72;;;11.08;100.00
26087;BME280;13851;43.434;28.338;2023-04-25T01:00:06;99253.22;;;11.07;100.00
26087;BME280;13851;43.434;28.338;2023-04-25T01:02:33;99239.69;;;11.05;100.00
26087;BME280;13851;43.434;28.338;2023-04-25T01:05:02;99260.84;;;11.11;100.00
26087;BME280;13851;43.434;28.338;2023-04-25T01:07:27;98923.69;;;9.18;100.00
26087;BME280;13851;43.434;28.338;2023-04-25T01:09:53;99243.06;;;11.01;100.00
26087;BME280;13851;43.434;28.338;2023-04-25T01:12:19;99221.91;;;10.94;100.00
26087;BME280;13851;43.434;28.338;2023-04-25T01:14:45;99191.50;;;10.83;100.00
26087;BME280;13851;43.434;28.338;2023-04-25T01:17:12;99144.78;;;10.63;100.00
26087;BME280;13851;43.434;28.338;2023-04-25T01:19:37;99235.97;;;11.13;100.00
26087;BME280;13851;43.434;28.338;2023-04-25T01:22:03;99248.97;;;11.04;100.00
26087;BME280;13851;43.434;28.338;2023-04-25T01:24:30;99209.69;;;10.90;100.00
26087;BME280;13851;43.434;28.338;2023-04-25T01:26:56;98872.50;;;8.84;100.00
26087;BME280;13851;43.434;28.338;2023-04-25T01:29:23;98912.84;;;9.03;100.00
26087;BME280;13851;43.434;28.338;2023-04-25T01:31:51;99246.88;;;11.06;100.00
26087;BME280;13851;43.434;28.338;2023-04-25T01:34:16;99243.94;;;11.08;100.00
26087;BME280;13851;43.434;28.338;2023-04-25T01:36:42;99234.28;;;11.12;100.00
26087;BME280;13851;43.434;28.338;2023-04-25T01:39:07;99238.94;;;11.18;100.00
26087;BME280;13851;43.434;28.338;2023-04-25T01:41:33;99234.31;;;11.18;100.00
26087;BME280;13851;43.434;28.338;2023-04-25T01:44:02;99232.19;;;11.20;100.00
26087;BME280;13851;43.434;28.338;2023-04-25T01:46:30;99204.94;;;10.78;100.00
26087;BME280;13851;43.434;28.338;2023-04-25T01:48:56;99195.00;;;10.70;100.00
26087;BME280;13851;43.434;28.338;2023-04-25T01:51:22;99237.66;;;11.14;100.00
26087;BME280;13851;43.434;28.338;2023-04-25T01:53:47;99230.47;;;11.13;100.00
26087;BME280;13851;43.434;28.338;2023-04-25T01:56:13;99221.19;;;11.14;100.00
26087;BME280;13851;43.434;28.338;2023-04-25T01:58:38;99241.59;;;11.05;100.00
26087;BME280;13851;43.434;28.338;2023-04-25T02:01:04;99200.97;;;11.15;100.00
26087;BME280;13851;43.434;28.338;2023-04-25T02:03:31;99160.06;;;10.79;100.00
26087;BME280;13851;43.434;28.338;2023-04-25T02:05:56;99217.81;;;11.12;100.00
26087;BME280;13851;43.434;28.338;2023-04-25T02:08:22;99150.75;;;10.73;100.00
26087;BME280;13851;43.434;28.338;2023-04-25T02:10:47;99175.16;;;10.68;100.00
26087;BME280;13851;43.434;28.338;2023-04-25T02:13:14;99186.50;;;10.93;100.00
26087;BME280;13851;43.434;28.338;2023-04-25T02:15:40;99205.34;;;11.09;100.00
26087;BME280;13851;43.434;28.338;2023-04-25T02:18:06;99205.09;;;11.04;100.00
26087;BME280;13851;43.434;28.338;2023-04-25T02:20:32;98890.50;;;9.21;100.00
26087;BME280;13851;43.434;28.338;2023-04-25T02:22:58;99202.81;;;11.08;100.00
26087;BME280;13851;43.434;28.338;2023-04-25T02:25:23;98893.47;;;9.26;100.00
26087;BME280;13851;43.434;28.338;2023-04-25T02:27:51;98812.44;;;8.84;100.00
26087;BME280;13851;43.434;28.338;2023-04-25T02:30:17;99153.59;;;10.86;100.00
26087;BME280;13851;43.434;28.338;2023-04-25T02:32:43;99083.59;;;10.21;100.00
26087;BME280;13851;43.434;28.338;2023-04-25T02:35:08;99211.25;;;11.06;100.00
26087;BME280;13851;43.434;28.338;2023-04-25T02:37:36;99167.19;;;11.08;100.00
26087;BME280;13851;43.434;28.338;2023-04-25T02:40:02;99167.59;;;11.05;100.00
26087;BME280;13851;43.434;28.338;2023-04-25T02:42:29;99134.16;;;10.81;100.00
26087;BME280;13851;43.434;28.338;2023-04-25T02:44:55;99116.28;;;10.85;100.00
26087;BME280;13851;43.434;28.338;2023-04-25T02:47:21;99151.56;;;11.02;100.00
26087;BME280;13851;43.434;28.338;2023-04-25T02:49:46;99110.13;;;10.83;100.00
26087;BME280;13851;43.434;28.338;2023-04-25T02:52:12;98862.66;;;9.32;100.00
26087;BME280;13851;43.434;28.338;2023-04-25T02:54:39;99134.31;;;11.08;100.00
26087;BME280;13851;43.434;28.338;2023-04-25T02:57:05;99149.00;;;11.00;100.00
26087;BME280;13851;43.434;28.338;2023-04-25T02:59:30;98858.56;;;9.22;100.00
26087;BME280;13851;43.434;28.338;2023-04-25T03:01:56;99165.44;;;11.00;100.00
26087;BME280;13851;43.434;28.338;2023-04-25T03:04:21;99135.00;;;10.82;100.00
26087;BME280;13851;43.434;28.338;2023-04-25T03:06:52;98879.22;;;9.31;100.00
26087;BME280;13851;43.434;28.338;2023-04-25T03:09:18;98834.06;;;9.07;100.00
26087;BME280;13851;43.434;28.338;2023-04-25T03:11:44;98810.41;;;8.93;100.00
26087;BME280;13851;43.434;28.338;2023-04-25T03:14:10;99107.97;;;10.72;100.00
26087;BME280;13851;43.434;28.338;2023-04-25T03:16:36;99142.06;;;10.98;100.00
26087;BME280;13851;43.434;28.338;2023-04-25T03:19:02;99152.44;;;11.09;100.00
26087;BME280;13851;43.434;28.338;2023-04-25T03:21:28;99152.03;;;11.12;100.00
26087;BME280;13851;43.434;28.338;2023-04-25T03:23:53;99157.75;;;11.17;100.00
26087;BME280;13851;43.434;28.338;2023-04-25T03:26:19;99179.34;;;10.99;100.00
26087;BME280;13851;43.434;28.338;2023-04-25T03:28:45;99131.47;;;10.94;100.00
26087;BME280;13851;43.434;28.338;2023-04-25T03:31:11;99132.75;;;10.92;100.00
26087;BME280;13851;43.434;28.338;2023-04-25T03:33:37;99116.03;;;10.80;100.00
26087;BME280;13851;43.434;28.338;2023-04-25T03:36:02;99149.63;;;10.96;100.00
26087;BME280;13851;43.434;28.338;2023-04-25T03:38:28;99068.03;;;10.50;100.00
26087;BME280;13851;43.434;28.338;2023-04-25T03:40:54;99173.53;;;11.08;100.00
26087;BME280;13851;43.434;28.338;2023-04-25T03:43:21;99187.44;;;11.07;100.00
26087;BME280;13851;43.434;28.338;2023-04-25T03:45:46;99179.44;;;11.12;100.00
26087;BME280;13851;43.434;28.338;2023-04-25T03:48:12;99143.91;;;10.90;100.00
26087;BME280;13851;43.434;28.338;2023-04-25T03:50:37;99183.03;;;11.12;100.00
26087;BME280;13851;43.434;28.338;2023-04-25T03:53:03;98808.28;;;8.88;100.00
26087;BME280;13851;43.434;28.338;2023-04-25T03:55:28;99178.06;;;10.94;100.00
26087;BME280;13851;43.434;28.338;2023-04-25T03:57:54;99203.50;;;11.16;100.00
26087;BME280;13851;43.434;28.338;2023-04-25T04:00:19;98869.25;;;9.45;100.00
26087;BME280;13851;43.434;28.338;2023-04-25T04:02:45;99227.84;;;11.33;100.00
26087;BME280;13851;43.434;28.338;2023-04-25T04:05:11;99218.19;;;11.37;100.00
26087;BME280;13851;43.434;28.338;2023-04-25T04:07:36;99175.78;;;11.39;100.00
26087;BME280;13851;43.434;28.338;2023-04-25T04:10:11;98885.81;;;9.71;100.00
26087;BME280;13851;43.434;28.338;2023-04-25T04:12:41;99009.72;;;10.62;100.00
26087;BME280;13851;43.434;28.338;2023-04-25T04:15:06;99134.19;;;11.29;100.00
26087;BME280;13851;43.434;28.338;2023-04-25T04:17:33;99164.66;;;11.48;100.00
26087;BME280;13851;43.434;28.338;2023-04-25T04:19:59;99097.84;;;11.14;100.00
26087;BME280;13851;43.434;28.338;2023-04-25T04:22:25;99137.00;;;11.42;100.00
26087;BME280;13851;43.434;28.338;2023-04-25T04:24:50;99148.81;;;11.50;100.00
26087;BME280;13851;43.434;28.338;2023-04-25T04:27:19;98965.97;;;10.00;100.00
26087;BME280;13851;43.434;28.338;2023-04-25T04:29:46;99162.78;;;11.61;100.00
26087;BME280;13851;43.434;28.338;2023-04-25T04:32:13;98968.41;;;10.51;100.00
26087;BME280;13851;43.434;28.338;2023-04-25T04:34:39;98935.66;;;10.29;100.00
26087;BME280;13851;43.434;28.338;2023-04-25T04:37:05;99139.75;;;11.56;100.00
26087;BME280;13851;43.434;28.338;2023-04-25T04:39:32;99118.41;;;11.44;100.00
26087;BME280;13851;43.434;28.338;2023-04-25T04:41:58;99157.78;;;11.78;100.00
26087;BME280;13851;43.434;28.338;2023-04-25T04:44:24;99156.50;;;11.74;100.00
26087;BME280;13851;43.434;28.338;2023-04-25T04:46:50;99161.16;;;11.80;100.00
26087;BME280;13851;43.434;28.338;2023-04-25T04:49:16;99134.25;;;11.49;100.00
26087;BME280;13851;43.434;28.338;2023-04-25T04:51:43;99111.09;;;11.58;100.00
26087;BME280;13851;43.434;28.338;2023-04-25T04:54:12;99107.09;;;11.67;100.00
26087;BME280;13851;43.434;28.338;2023-04-25T04:56:40;99149.41;;;12.00;100.00
26087;BME280;13851;43.434;28.338;2023-04-25T04:59:05;99035.53;;;11.42;100.00
26087;BME280;13851;43.434;28.338;2023-04-25T05:01:31;99118.34;;;11.92;100.00
26087;BME280;13851;43.434;28.338;2023-04-25T05:03:56;99131.19;;;11.72;100.00
26087;BME280;13851;43.434;28.338;2023-04-25T05:06:26;99070.06;;;11.24;100.00
26087;BME280;13851;43.434;28.338;2023-04-25T05:08:55;99064.84;;;11.55;100.00
26087;BME280;13851;43.434;28.338;2023-04-25T05:11:22;99165.88;;;11.93;100.00
26087;BME280;13851;43.434;28.338;2023-04-25T05:13:47;99160.97;;;11.82;100.00
26087;BME280;13851;43.434;28.338;2023-04-25T05:16:13;99137.16;;;11.95;100.00
26087;BME280;13851;43.434;28.338;2023-04-25T05:18:39;99200.69;;;11.92;100.00
26087;BME280;13851;43.434;28.338;2023-04-25T05:21:05;99099.09;;;11.79;100.00
26087;BME280;13851;43.434;28.338;2023-04-25T05:23:32;99161.63;;;11.90;100.00
26087;BME280;13851;43.434;28.338;2023-04-25T05:25:57;98999.34;;;10.99;100.00
26087;BME280;13851;43.434;28.338;2023-04-25T05:28:23;99173.34;;;11.71;100.00
26087;BME280;13851;43.434;28.338;2023-04-25T05:30:49;99003.75;;;11.00;100.00
26087;BME280;13851;43.434;28.338;2023-04-25T05:33:15;99144.53;;;11.88;100.00
26087;BME280;13851;43.434;28.338;2023-04-25T05:35:40;99156.56;;;11.94;100.00
26087;BME280;13851;43.434;28.338;2023-04-25T05:38:06;99131.25;;;12.05;100.00
26087;BME280;13851;43.434;28.338;2023-04-25T05:40:32;99118.16;;;12.20;100.00
26087;BME280;13851;43.434;28.338;2023-04-25T05:42:57;99098.50;;;11.97;100.00
26087;BME280;13851;43.434;28.338;2023-04-25T05:45:23;99116.03;;;12.22;100.00
26087;BME280;13851;43.434;28.338;2023-04-25T05:47:48;99098.28;;;11.92;100.00
26087;BME280;13851;43.434;28.338;2023-04-25T05:50:14;99120.28;;;12.32;100.00
26087;BME280;13851;43.434;28.338;2023-04-25T05:52:39;98795.22;;;10.35;100.00
26087;BME280;13851;43.434;28.338;2023-04-25T05:55:05;99114.78;;;12.25;100.00
26087;BME280;13851;43.434;28.338;2023-04-25T05:57:31;99100.19;;;11.91;100.00
26087;BME280;13851;43.434;28.338;2023-04-25T05:59:57;99110.56;;;12.16;100.00
26087;BME280;13851;43.434;28.338;2023-04-25T06:02:22;98788.25;;;10.33;100.00
26087;BME280;13851;43.434;28.338;2023-04-25T06:04:49;99109.72;;;12.35;100.00
26087;BME280;13851;43.434;28.338;2023-04-25T06:07:15;98864.44;;;11.04;100.00
26087;BME280;13851;43.434;28.338;2023-04-25T06:09:40;99079.28;;;12.17;100.00
26087;BME280;13851;43.434;28.338;2023-04-25T06:12:06;99094.50;;;12.26;100.00
26087;BME280;13851;43.434;28.338;2023-04-25T06:14:35;99024.41;;;11.84;100.00
26087;BME280;13851;43.434;28.338;2023-04-25T06:17:02;98980.06;;;11.67;100.00
26087;BME280;13851;43.434;28.338;2023-04-25T06:19:35;99090.06;;;11.99;100.00
26087;BME280;13851;43.434;28.338;2023-04-25T06:22:01;99084.59;;;12.25;100.00
26087;BME280;13851;43.434;28.338;2023-04-25T06:24:27;99015.97;;;11.85;100.00
26087;BME280;13851;43.434;28.338;2023-04-25T06:26:52;98998.19;;;11.61;100.00
26087;BME280;13851;43.434;28.338;2023-04-25T06:29:18;99061.72;;;11.71;100.00
26087;BME280;13851;43.434;28.338;2023-04-25T06:31:44;98785.44;;;10.13;100.00
26087;BME280;13851;43.434;28.338;2023-04-25T06:34:09;99079.75;;;12.14;100.00
26087;BME280;13851;43.434;28.338;2023-04-25T06:36:35;99070.88;;;12.18;100.00
26087;BME280;13851;43.434;28.338;2023-04-25T06:39:00;98755.63;;;10.31;100.00
26087;BME280;13851;43.434;28.338;2023-04-25T06:41:26;99067.47;;;12.23;100.00
26087;BME280;13851;43.434;28.338;2023-04-25T06:43:51;99119.84;;;12.28;100.00
26087;BME280;13851;43.434;28.338;2023-04-25T06:46:17;99075.28;;;12.26;100.00
26087;BME280;13851;43.434;28.338;2023-04-25T06:48:42;99053.31;;;12.26;100.00
26087;BME280;13851;43.434;28.338;2023-04-25T06:51:08;98735.44;;;10.46;100.00
26087;BME280;13851;43.434;28.338;2023-04-25T06:53:33;98804.75;;;10.79;100.00
26087;BME280;13851;43.434;28.338;2023-04-25T06:55:59;99063.47;;;12.39;100.00
26087;BME280;13851;43.434;28.338;2023-04-25T06:58:24;99006.66;;;12.13;100.00
26087;BME280;13851;43.434;28.338;2023-04-25T07:00:51;99086.88;;;12.41;100.00
26087;BME280;13851;43.434;28.338;2023-04-25T07:03:17;98800.38;;;10.91;100.00
26087;BME280;13851;43.434;28.338;2023-04-25T07:05:42;99051.38;;;12.46;100.00
26087;BME280;13851;43.434;28.338;2023-04-25T07:08:08;99097.16;;;12.79;100.00
26087;BME280;13851;43.434;28.338;2023-04-25T07:10:33;99079.03;;;12.65;100.00
26087;BME280;13851;43.434;28.338;2023-04-25T07:12:59;99042.50;;;12.38;100.00
26087;BME280;13851;43.434;28.338;2023-04-25T07:15:24;99068.28;;;12.57;100.00
26087;BME280;13851;43.434;28.338;2023-04-25T07:17:50;98667.66;;;10.34;100.00
26087;BME280;13851;43.434;28.338;2023-04-25T07:20:15;99063.56;;;12.77;100.00
26087;BME280;13851;43.434;28.338;2023-04-25T07:22:41;99028.06;;;12.75;100.00
26087;BME280;13851;43.434;28.338;2023-04-25T07:25:07;98941.28;;;12.55;100.00
26087;BME280;13851;43.434;28.338;2023-04-25T07:27:33;98754.31;;;11.53;100.00
26087;BME280;13851;43.434;28.338;2023-04-25T07:29:59;99039.78;;;13.02;100.00
26087;BME280;13851;43.434;28.338;2023-04-25T07:32:25;99061.84;;;13.41;100.00
26087;BME280;13851;43.434;28.338;2023-04-25T07:34:51;98987.75;;;13.08;100.00
26087;BME280;13851;43.434;28.338;2023-04-25T07:37:16;98751.53;;;11.60;100.00
26087;BME280;13851;43.434;28.338;2023-04-25T07:39:44;99017.38;;;12.99;100.00
26087;BME280;13851;43.434;28.338;2023-04-25T07:42:11;99031.78;;;13.01;100.00
26087;BME280;13851;43.434;28.338;2023-04-25T07:44:37;99075.38;;;12.84;100.00
26087;BME280;13851;43.434;28.338;2023-04-25T07:47:06;99067.38;;;13.34;100.00
26087;BME280;13851;43.434;28.338;2023-04-25T07:49:38;99030.19;;;13.18;100.00
26087;BME280;13851;43.434;28.338;2023-04-25T07:52:05;99045.25;;;13.54;100.00
26087;BME280;13851;43.434;28.338;2023-04-25T07:54:31;99030.44;;;13.17;100.00
26087;BME280;13851;43.434;28.338;2023-04-25T07:56:57;99023.34;;;12.96;100.00
26087;BME280;13851;43.434;28.338;2023-04-25T07:59:23;99040.72;;;13.35;100.00
26087;BME280;13851;43.434;28.338;2023-04-25T08:01:49;99063.69;;;13.53;100.00
26087;BME280;13851;43.434;28.338;2023-04-25T08:04:15;99036.25;;;13.40;100.00
26087;BME280;13851;43.434;28.338;2023-04-25T08:06:40;99031.00;;;13.32;100.00
26087;BME280;13851;43.434;28.338;2023-04-25T08:09:06;98920.34;;;12.54;100.00
26087;BME280;13851;43.434;28.338;2023-04-25T08:11:33;99042.34;;;13.49;100.00
26087;BME280;13851;43.434;28.338;2023-04-25T08:13:59;98890.63;;;12.82;100.00
26087;BME280;13851;43.434;28.338;2023-04-25T08:16:25;99032.44;;;13.73;100.00
26087;BME280;13851;43.434;28.338;2023-04-25T08:18:50;98996.38;;;13.81;100.00
26087;BME280;13851;43.434;28.338;2023-04-25T08:21:16;98957.97;;;13.68;100.00
26087;BME280;13851;43.434;28.338;2023-04-25T08:23:41;98963.97;;;13.83;100.00
26087;BME280;13851;43.434;28.338;2023-04-25T08:26:07;99034.06;;;14.30;100.00
26087;BME280;13851;43.434;28.338;2023-04-25T08:28:32;99031.81;;;14.21;100.00
26087;BME280;13851;43.434;28.338;2023-04-25T08:30:59;99026.78;;;14.61;100.00
26087;BME280;13851;43.434;28.338;2023-04-25T08:33:25;98764.28;;;12.69;100.00
26087;BME280;13851;43.434;28.338;2023-04-25T08:35:51;99078.38;;;14.29;100.00
26087;BME280;13851;43.434;28.338;2023-04-25T08:38:17;99038.91;;;14.10;100.00
26087;BME280;13851;43.434;28.338;2023-04-25T08:40:43;99080.78;;;13.94;100.00
26087;BME280;13851;43.434;28.338;2023-04-25T08:43:09;98931.75;;;13.34;100.00
26087;BME280;13851;43.434;28.338;2023-04-25T08:45:42;99064.31;;;13.87;100.00
26087;BME280;13851;43.434;28.338;2023-04-25T08:48:11;99048.47;;;13.83;100.00
26087;BME280;13851;43.434;28.338;2023-04-25T08:50:52;98865.78;;;12.12;100.00
26087;BME280;13851;43.434;28.338;2023-04-25T08:53:27;99042.38;;;13.74;100.00
26087;BME280;13851;43.434;28.338;2023-04-25T08:55:54;98973.63;;;13.67;100.00
26087;BME280;13851;43.434;28.338;2023-04-25T08:58:21;99033.06;;;14.25;100.00
26087;BME280;13851;43.434;28.338;2023-04-25T09:00:49;99014.69;;;13.94;100.00
26087;BME280;13851;43.434;28.338;2023-04-25T09:03:16;99010.19;;;13.74;100.00
26087;BME280;13851;43.434;28.338;2023-04-25T09:05:42;98913.69;;;13.13;100.00
26087;BME280;13851;43.434;28.338;2023-04-25T09:08:07;99015.78;;;13.61;100.00
26087;BME280;13851;43.434;28.338;2023-04-25T09:10:34;99043.81;;;14.08;100.00
26087;BME280;13851;43.434;28.338;2023-04-25T09:13:11;98744.63;;;12.09;100.00
26087;BME280;13851;43.434;28.338;2023-04-25T09:15:54;99022.72;;;13.95;100.00
26087;BME280;13851;43.434;28.338;2023-04-25T09:18:27;99046.16;;;14.29;100.00
26087;BME280;13851;43.434;28.338;2023-04-25T09:20:58;99056.19;;;13.99;100.00
26087;BME280;13851;43.434;28.338;2023-04-25T09:23:30;99017.22;;;14.20;100.00
26087;BME280;13851;43.434;28.338;2023-04-25T09:25:56;98987.91;;;14.26;100.00
26087;BME280;13851;43.434;28.338;2023-04-25T09:28:25;99044.09;;;14.43;100.00
26087;BME280;13851;43.434;28.338;2023-04-25T09:30:58;98952.13;;;14.01;100.00
26087;BME280;13851;43.434;28.338;2023-04-25T09:33:28;98717.03;;;12.60;100.00
26087;BME280;13851;43.434;28.338;2023-04-25T09:36:04;98986.72;;;14.59;100.00
26087;BME280;13851;43.434;28.338;2023-04-25T09:38:41;99021.34;;;14.91;100.00
26087;BME280;13851;43.434;28.338;2023-04-25T09:41:08;99001.66;;;14.88;100.00
26087;BME280;13851;43.434;28.338;2023-04-25T09:43:35;99091.59;;;15.07;100.00
26087;BME280;13851;43.434;28.338;2023-04-25T09:46:00;99009.03;;;15.24;100.00
26087;BME280;13851;43.434;28.338;2023-04-25T09:48:27;98989.19;;;14.67;100.00
26087;BME280;13851;43.434;28.338;2023-04-25T09:51:13;99012.22;;;15.09;100.00
26087;BME280;13851;43.434;28.338;2023-04-25T09:53:41;98786.66;;;13.72;100.00
26087;BME280;13851;43.434;28.338;2023-04-25T09:56:08;99021.91;;;15.30;100.00
26087;BME280;13851;43.434;28.338;2023-04-25T09:58:36;98977.72;;;14.51;100.00
26087;BME280;13851;43.434;28.338;2023-04-25T10:01:06;98671.75;;;12.69;100.00
26087;BME280;13851;43.434;28.338;2023-04-25T10:03:34;98997.59;;;14.53;100.00
26087;BME280;13851;43.434;28.338;2023-04-25T10:06:02;99005.75;;;14.42;100.00
26087;BME280;13851;43.434;28.338;2023-04-25T10:08:35;99016.38;;;14.20;100.00
26087;BME280;13851;43.434;28.338;2023-04-25T10:11:06;99014.13;;;14.53;100.00
26087;BME280;13851;43.434;28.338;2023-04-25T10:13:35;98725.47;;;12.90;100.00
26087;BME280;13851;43.434;28.338;2023-04-25T10:16:03;98879.56;;;13.77;100.00
26087;BME280;13851;43.434;28.338;2023-04-25T10:18:32;98913.59;;;13.83;100.00
26087;BME280;13851;43.434;28.338;2023-04-25T10:21:00;98659.72;;;12.14;100.00
26087;BME280;13851;43.434;28.338;2023-04-25T10:23:27;98995.09;;;14.09;100.00
26087;BME280;13851;43.434;28.338;2023-04-25T10:25:54;98921.44;;;13.79;100.00
26087;BME280;13851;43.434;28.338;2023-04-25T10:28:20;98981.72;;;14.30;100.00
26087;BME280;13851;43.434;28.338;2023-04-25T10:31:03;98978.94;;;14.55;100.00
26087;BME280;13851;43.434;28.338;2023-04-25T10:33:36;98960.84;;;14.41;100.00
26087;BME280;13851;43.434;28.338;2023-04-25T10:36:30;98965.41;;;14.54;100.00
26087;BME280;13851;43.434;28.338;2023-04-25T10:38:56;98935.59;;;14.44;100.00
26087;BME280;13851;43.434;28.338;2023-04-25T10:41:31;98440.94;;;11.39;100.00
26087;BME280;13851;43.434;28.338;2023-04-25T10:44:10;98987.78;;;14.94;100.00
26087;BME280;13851;43.434;28.338;2023-04-25T10:46:35;98956.56;;;14.82;100.00
26087;BME280;13851;43.434;28.338;2023-04-25T10:49:02;98984.69;;;15.21;100.00
26087;BME280;13851;43.434;28.338;2023-04-25T10:51:32;99002.41;;;15.43;100.00
26087;BME280;13851;43.434;28.338;2023-04-25T10:54:06;98958.38;;;15.06;100.00
26087;BME280;13851;43.434;28.338;2023-04-25T11:01:38;98898.69;;;14.64;100.00
26087;BME280;13851;43.434;28.338;2023-04-25T11:04:04;98833.25;;;14.41;100.00
26087;BME280;13851;43.434;28.338;2023-04-25T11:09:40;98972.81;;;14.90;100.00
26087;BME280;13851;43.434;28.338;2023-04-25T11:12:08;98983.22;;;15.18;100.00
26087;BME280;13851;43.434;28.338;2023-04-25T11:14:35;98894.78;;;14.71;100.00
26087;BME280;13851;43.434;28.338;2023-04-25T11:17:01;98978.38;;;15.32;100.00
26087;BME280;13851;43.434;28.338;2023-04-25T11:19:28;99023.41;;;15.44;100.00
26087;BME280;13851;43.434;28.338;2023-04-25T11:21:58;98990.03;;;15.76;100.00
26087;BME280;13851;43.434;28.338;2023-04-25T11:24:32;99042.50;;;15.76;100.00
26087;BME280;13851;43.434;28.338;2023-04-25T11:27:00;98983.59;;;15.82;100.00
26087;BME280;13851;43.434;28.338;2023-04-25T11:29:30;98931.66;;;15.19;100.00
26087;BME280;13851;43.434;28.338;2023-04-25T11:31:56;98985.56;;;15.63;100.00
26087;BME280;13851;43.434;28.338;2023-04-25T11:34:24;98645.88;;;13.87;100.00
26087;BME280;13851;43.434;28.338;2023-04-25T11:36:50;98983.84;;;16.16;100.00
26087;BME280;13851;43.434;28.338;2023-04-25T11:39:18;98953.81;;;16.19;100.00
26087;BME280;13851;43.434;28.338;2023-04-25T11:41:44;98981.19;;;16.44;100.00
26087;BME280;13851;43.434;28.338;2023-04-25T11:44:09;98974.47;;;15.93;100.00
26087;BME280;13851;43.434;28.338;2023-04-25T11:46:35;98942.53;;;15.97;100.00
26087;BME280;13851;43.434;28.338;2023-04-25T11:49:01;98989.97;;;16.18;100.00
26087;BME280;13851;43.434;28.338;2023-04-25T11:51:27;98923.41;;;15.96;100.00
26087;BME280;13851;43.434;28.338;2023-04-25T11:53:52;98967.25;;;16.39;100.00
26087;BME280;13851;43.434;28.338;2023-04-25T11:56:18;98956.22;;;16.16;100.00
26087;BME280;13851;43.434;28.338;2023-04-25T11:59:02;99006.19;;;16.02;100.00
26087;BME280;13851;43.434;28.338;2023-04-25T12:01:37;98912.72;;;15.99;100.00
26087;BME280;13851;43.434;28.338;2023-04-25T12:04:20;98982.78;;;16.28;100.00
26087;BME280;13851;43.434;28.338;2023-04-25T12:06:47;98908.16;;;15.81;100.00
26087;BME280;13851;43.434;28.338;2023-04-25T12:09:15;99004.84;;;16.05;100.00
26087;BME280;13851;43.434;28.338;2023-04-25T12:11:53;98961.97;;;16.26;100.00
26087;BME280;13851;43.434;28.338;2023-04-25T12:14:27;98959.44;;;16.36;100.00
26087;BME280;13851;43.434;28.338;2023-04-25T12:17:01;98955.97;;;16.05;100.00
26087;BME280;13851;43.434;28.338;2023-04-25T12:19:35;98965.69;;;16.20;100.00
26087;BME280;13851;43.434;28.338;2023-04-25T12:22:02;98956.94;;;16.34;100.00
26087;BME280;13851;43.434;28.338;2023-04-25T12:24:33;98942.38;;;16.16;100.00
26087;BME280;13851;43.434;28.338;2023-04-25T12:27:01;98992.47;;;16.54;100.00
26087;BME280;13851;43.434;28.338;2023-04-25T12:29:30;98943.59;;;16.95;100.00
26087;BME280;13851;43.434;28.338;2023-04-25T12:31:56;98949.41;;;16.70;100.00
26087;BME280;13851;43.434;28.338;2023-04-25T12:34:23;98944.53;;;17.01;100.00
26087;BME280;13851;43.434;28.338;2023-04-25T12:36:50;98938.75;;;17.31;100.00
26087;BME280;13851;43.434;28.338;2023-04-25T12:39:17;98935.06;;;17.25;100.00
26087;BME280;13851;43.434;28.338;2023-04-25T12:41:43;98922.97;;;17.31;100.00
26087;BME280;13851;43.434;28.338;2023-04-25T12:44:12;98880.28;;;16.70;100.00
26087;BME280;13851;43.434;28.338;2023-04-25T12:46:38;98797.84;;;16.55;100.00
26087;BME280;13851;43.434;28.338;2023-04-25T12:49:05;98522.28;;;15.20;100.00